Time;durP1;ratioP1;P1;durP2;ratioP2;P2;SDS_P1;SDS_P2;PMS_P1;PMS_P2;Temp;Humidity;BMP_temperature;BMP_pressure;BME280_temperature;BME280_humidity;BME280_pressure;Samples;Min_cycle;Max_cycle;Signal;HPM_P1;HPM_P2
2023/04/04 00:01:37;;;;;;;12.98;3.53;;;;;;;0.95;82.05;102790.00;5050323;28;20128;-76
2023/04/04 00:04:02;;;;;;;12.50;4.35;;;;;;;0.91;81.84;102783.84;5060415;28;20056;-76
2023/04/04 00:06:27;;;;;;;11.25;3.47;;;;;;;0.89;81.65;102788.25;5055532;28;20031;-76
2023/04/04 00:08:52;;;;;;;15.15;4.03;;;;;;;0.89;81.10;102784.72;5047286;28;20034;-75
2023/04/04 00:11:18;;;;;;;15.90;4.20;;;;;;;0.85;81.31;102790.03;5043633;28;20021;-76
2023/04/04 00:13:44;;;;;;;13.25;4.50;;;;;;;0.84;81.95;102784.72;5055622;28;20078;-76
2023/04/04 00:16:10;;;;;;;11.55;4.00;;;;;;;0.83;81.43;102790.91;5053231;28;20104;-76
2023/04/04 00:18:35;;;;;;;13.45;4.18;;;;;;;0.81;82.13;102790.91;5055862;28;20424;-76
2023/04/04 00:21:01;;;;;;;17.75;4.57;;;;;;;0.80;82.50;102785.63;5057301;28;20090;-76
2023/04/04 00:23:26;;;;;;;11.38;4.13;;;;;;;0.77;82.92;102791.78;5047204;28;20073;-76
2023/04/04 00:25:52;;;;;;;14.90;4.50;;;;;;;0.76;82.02;102802.38;5059801;28;20029;-76
2023/04/04 00:28:20;;;;;;;14.65;4.53;;;;;;;0.75;83.37;102803.25;5038761;28;20416;-76
2023/04/04 00:30:46;;;;;;;20.50;4.07;;;;;;;0.71;82.53;102797.09;5055385;28;20025;-76
2023/04/04 00:33:13;;;;;;;14.73;4.28;;;;;;;0.72;82.99;102797.97;5042542;28;20037;-75
2023/04/04 00:35:38;;;;;;;13.05;3.97;;;;;;;0.69;82.81;102791.81;5061199;28;20484;-76
2023/04/04 00:38:04;;;;;;;13.88;4.35;;;;;;;0.69;83.13;102794.44;5062383;28;20040;-76
2023/04/04 00:40:29;;;;;;;18.58;4.15;;;;;;;0.67;83.48;102797.97;5051859;28;20055;-75
2023/04/04 00:42:56;;;;;;;15.68;4.30;;;;;;;0.62;82.58;102792.69;5040851;28;20029;-76
2023/04/04 00:45:21;;;;;;;14.43;5.00;;;;;;;0.64;82.84;102796.19;5061608;28;20028;-76
2023/04/04 00:47:47;;;;;;;13.10;4.28;;;;;;;0.65;82.99;102797.97;5052021;28;20025;-76
2023/04/04 00:50:13;;;;;;;14.50;4.05;;;;;;;0.69;83.19;102796.22;5052666;28;20034;-76
2023/04/04 00:52:38;;;;;;;17.45;4.70;;;;;;;0.69;82.65;102802.38;5054846;28;20066;-76
2023/04/04 00:55:04;;;;;;;18.02;4.95;;;;;;;0.72;81.76;102797.97;5063999;28;20120;-76
2023/04/04 00:57:32;;;;;;;12.23;4.05;;;;;;;0.71;82.43;102801.50;5053593;28;20428;-76
2023/04/04 00:59:58;;;;;;;21.52;4.32;;;;;;;0.73;81.33;102799.75;5061073;28;20029;-76
2023/04/04 01:02:24;;;;;;;13.15;3.83;;;;;;;0.71;81.78;102796.22;5049938;28;20028;-76
2023/04/04 01:04:50;;;;;;;11.80;3.95;;;;;;;0.66;82.41;102799.75;5050627;28;20049;-76
2023/04/04 01:07:17;;;;;;;13.27;4.38;;;;;;;0.62;81.49;102794.47;5059485;28;20025;-76
2023/04/04 01:09:43;;;;;;;13.60;3.97;;;;;;;0.60;82.23;102794.47;5073428;28;20029;-76
2023/04/04 01:12:08;;;;;;;11.18;3.53;;;;;;;0.59;82.89;102803.28;5042528;28;20210;-76
2023/04/04 01:14:34;;;;;;;10.35;4.13;;;;;;;0.57;82.87;102797.13;5064102;28;20100;-76
2023/04/04 01:17:01;;;;;;;11.60;4.45;;;;;;;0.57;82.75;102793.56;5055708;28;20056;-76
2023/04/04 01:19:37;;;;;;;15.48;4.20;;;;;;;0.57;82.71;102789.19;5052302;28;20078;-75
2023/04/04 01:22:03;;;;;;;14.60;4.28;;;;;;;0.55;81.39;102784.75;5045866;28;20021;-76
2023/04/04 01:24:32;;;;;;;15.00;4.35;;;;;;;0.55;81.82;102779.47;5053438;28;20124;-76
2023/04/04 01:26:59;;;;;;;13.05;4.03;;;;;;;0.54;81.26;102772.41;5050277;28;20040;-76
2023/04/04 01:29:25;;;;;;;13.90;4.43;;;;;;;0.50;81.87;102763.59;5048390;28;20040;-76
2023/04/04 01:31:57;;;;;;;11.85;3.97;;;;;;;0.52;82.53;102775.06;5062311;28;20037;-76
2023/04/04 01:34:47;;;;;;;11.85;3.92;;;;;;;0.57;81.72;102772.41;5050441;28;20048;-76
2023/04/04 01:37:22;;;;;;;10.45;3.80;;;;;;;0.53;82.52;102771.53;5063098;28;20032;-75
2023/04/04 01:39:55;;;;;;;13.75;4.38;;;;;;;0.50;82.64;102761.81;5066171;28;20549;-75
2023/04/04 01:42:21;;;;;;;14.20;4.22;;;;;;;0.50;82.09;102766.25;5044335;28;20021;-75
2023/04/04 01:44:52;;;;;;;16.73;4.32;;;;;;;0.46;82.97;102765.34;5051791;28;20105;-76
2023/04/04 01:47:18;;;;;;;11.38;3.80;;;;;;;0.44;82.07;102766.22;5056842;28;20059;-76
2023/04/04 01:49:44;;;;;;;16.15;4.63;;;;;;;0.39;81.29;102762.72;5063965;28;20024;-75
2023/04/04 01:52:09;;;;;;;15.43;4.32;;;;;;;0.36;82.73;102757.44;5054148;28;20108;-76
2023/04/04 01:54:35;;;;;;;15.43;4.72;;;;;;;0.34;82.69;102757.44;5062762;28;20481;-76
2023/04/04 01:57:01;;;;;;;13.45;4.30;;;;;;;0.29;82.15;102768.00;5057283;28;20045;-76
2023/04/04 01:59:26;;;;;;;16.90;4.35;;;;;;;0.26;81.69;102762.69;5054755;28;20358;-76
2023/04/04 02:01:52;;;;;;;13.50;4.10;;;;;;;0.22;81.55;102762.69;5060654;28;20017;-76
2023/04/04 02:04:17;;;;;;;13.07;4.20;;;;;;;0.16;82.22;102758.28;5059439;28;20032;-76
2023/04/04 02:06:43;;;;;;;11.45;4.25;;;;;;;0.14;82.08;102757.41;5048636;28;20041;-76
2023/04/04 02:09:08;;;;;;;12.27;4.00;;;;;;;0.10;82.80;102761.81;5057911;28;20147;-76
2023/04/04 02:11:33;;;;;;;13.00;3.85;;;;;;;0.07;82.72;102766.22;5049557;28;20025;-76
2023/04/04 02:13:59;;;;;;;15.35;3.80;;;;;;;0.02;83.06;102763.56;5071907;28;20187;-76
2023/04/04 02:16:24;;;;;;;15.45;4.32;;;;;;;0.00;83.40;102760.06;5054453;28;20210;-76
2023/04/04 02:18:49;;;;;;;12.73;4.80;;;;;;;-0.01;83.88;102766.22;5053616;28;20179;-76
2023/04/04 02:21:15;;;;;;;15.23;4.50;;;;;;;-0.04;84.14;102758.28;5040676;28;20025;-76
2023/04/04 02:23:41;;;;;;;14.70;4.82;;;;;;;-0.04;83.82;102768.84;5046221;28;20029;-76
2023/04/04 02:26:06;;;;;;;15.52;4.93;;;;;;;-0.06;83.07;102760.00;5057584;28;20127;-76
2023/04/04 02:28:31;;;;;;;12.32;3.95;;;;;;;-0.09;83.16;102766.19;5039716;28;20532;-76
2023/04/04 02:31:01;;;;;;;14.25;3.83;;;;;;;-0.13;83.03;102761.78;5046595;28;20039;-76
2023/04/04 02:33:27;;;;;;;12.98;4.25;;;;;;;-0.12;83.44;102775.88;5046796;28;20028;-76
2023/04/04 02:35:57;;;;;;;14.82;4.47;;;;;;;-0.11;85.02;102770.59;5057460;28;20115;-75
2023/04/04 02:38:22;;;;;;;10.90;3.30;;;;;;;-0.12;84.90;102783.78;5057205;28;20116;-76
2023/04/04 02:40:48;;;;;;;14.73;4.70;;;;;;;-0.09;84.75;102784.69;5045415;28;20116;-75
2023/04/04 02:43:13;;;;;;;13.38;4.20;;;;;;;-0.12;83.78;102778.50;5044965;28;20025;-75
2023/04/04 02:45:38;;;;;;;11.20;4.13;;;;;;;-0.15;84.11;102779.38;5041864;28;20029;-76
2023/04/04 02:48:04;;;;;;;13.80;4.32;;;;;;;-0.15;85.05;102773.22;5044034;28;20618;-76
2023/04/04 02:50:29;;;;;;;13.57;4.65;;;;;;;-0.18;85.10;102771.44;5041871;28;20098;-76
2023/04/04 02:53:01;;;;;;;15.65;4.97;;;;;;;-0.19;84.27;102772.31;5043115;28;20025;-75
2023/04/04 02:55:26;;;;;;;16.60;4.32;;;;;;;-0.23;85.16;102755.59;5041327;28;20190;-76
2023/04/04 02:57:52;;;;;;;14.50;4.30;;;;;;;-0.25;83.76;102761.72;5040286;28;20139;-75
2023/04/04 03:00:17;;;;;;;12.15;4.25;;;;;;;-0.26;83.87;102755.56;5043955;28;20678;-75
2023/04/04 03:02:43;;;;;;;12.75;3.63;;;;;;;-0.29;83.75;102763.50;5044411;28;20052;-75
2023/04/04 03:05:08;;;;;;;14.57;4.38;;;;;;;-0.28;84.18;102764.38;5044760;28;20541;-75
2023/04/04 03:07:34;;;;;;;13.73;4.25;;;;;;;-0.27;84.56;102766.16;5044568;28;20032;-75
2023/04/04 03:09:59;;;;;;;10.10;3.95;;;;;;;-0.28;84.04;102756.44;5043503;28;20405;-76
2023/04/04 03:12:25;;;;;;;12.70;3.97;;;;;;;-0.28;85.41;102764.38;5045017;28;20029;-75
2023/04/04 03:14:51;;;;;;;13.25;3.83;;;;;;;-0.28;85.73;102767.91;5043570;28;20055;-75
2023/04/04 03:17:17;;;;;;;15.40;4.72;;;;;;;-0.31;85.09;102778.44;5044079;28;20399;-75
2023/04/04 03:19:42;;;;;;;15.75;4.53;;;;;;;-0.33;85.12;102767.00;5041901;28;20424;-76
2023/04/04 03:22:07;;;;;;;14.73;4.70;;;;;;;-0.34;86.16;102772.28;5041869;28;20028;-75
2023/04/04 03:24:33;;;;;;;11.45;3.88;;;;;;;-0.35;85.37;102779.34;5041743;28;20036;-75
2023/04/04 03:27:00;;;;;;;13.88;4.40;;;;;;;-0.33;85.02;102767.00;5044056;28;20037;-75
2023/04/04 03:29:25;;;;;;;15.32;4.43;;;;;;;-0.36;84.55;102767.00;5040346;28;20033;-75
2023/04/04 03:31:51;;;;;;;11.52;4.00;;;;;;;-0.38;84.47;102774.00;5044652;28;20036;-75
2023/04/04 03:34:16;;;;;;;14.68;3.90;;;;;;;-0.41;83.63;102774.91;5041179;28;20039;-76
2023/04/04 03:36:41;;;;;;;15.77;5.07;;;;;;;-0.43;83.82;102766.06;5042424;28;20025;-75
2023/04/04 03:39:07;;;;;;;17.98;4.68;;;;;;;-0.46;83.01;102766.06;5043262;28;20521;-75
2023/04/04 03:41:34;;;;;;;13.20;4.00;;;;;;;-0.49;83.56;102755.50;5040175;28;20028;-75
2023/04/04 03:43:59;;;;;;;17.85;4.88;;;;;;;-0.52;82.68;102755.50;5041904;28;20033;-75
2023/04/04 03:46:25;;;;;;;13.32;4.03;;;;;;;-0.54;83.89;102751.97;5059192;28;20610;-75
2023/04/04 03:48:50;;;;;;;18.15;4.72;;;;;;;-0.55;83.98;102751.06;5041200;28;20040;-76
2023/04/04 03:51:25;;;;;;;12.38;4.50;;;;;;;-0.55;84.52;102747.56;5045723;28;20091;-76
2023/04/04 03:53:50;;;;;;;13.05;4.18;;;;;;;-0.58;83.86;102750.19;5042318;28;20032;-76
2023/04/04 03:56:16;;;;;;;13.43;4.10;;;;;;;-0.59;84.10;102737.84;5042103;28;20044;-75
2023/04/04 03:58:41;;;;;;;16.17;4.68;;;;;;;-0.62;84.71;102744.00;5041213;28;20068;-75
2023/04/04 04:01:06;;;;;;;13.48;4.00;;;;;;;-0.59;85.19;102737.84;5043132;28;20028;-76
2023/04/04 04:03:32;;;;;;;16.85;5.07;;;;;;;-0.62;85.14;102737.84;5042869;28;20073;-75
2023/04/04 04:05:58;;;;;;;13.38;4.40;;;;;;;-0.63;84.21;102747.53;5043076;28;20025;-75
2023/04/04 04:08:24;;;;;;;10.88;4.03;;;;;;;-0.64;83.77;102747.53;5042973;28;20032;-75
2023/04/04 04:10:49;;;;;;;16.10;4.40;;;;;;;-0.66;83.58;102739.63;5043102;28;20485;-76
2023/04/04 04:13:15;;;;;;;13.45;4.72;;;;;;;-0.65;85.15;102743.13;5045231;28;20024;-75
2023/04/04 04:15:40;;;;;;;12.68;4.43;;;;;;;-0.65;84.58;102748.41;5041827;28;20037;-75
2023/04/04 04:18:05;;;;;;;9.65;3.50;;;;;;;-0.66;84.48;102744.91;5038320;28;20791;-75
2023/04/04 04:20:31;;;;;;;16.13;4.40;;;;;;;-0.68;85.08;102748.41;5042141;28;20032;-75
2023/04/04 04:22:56;;;;;;;15.55;4.43;;;;;;;-0.72;84.41;102743.09;5044150;28;20037;-75
2023/04/04 04:25:22;;;;;;;15.73;5.43;;;;;;;-0.74;84.37;102747.47;5045514;28;20120;-76
2023/04/04 04:27:47;;;;;;;15.38;4.25;;;;;;;-0.76;84.35;102740.41;5052183;28;20440;-75
2023/04/04 04:30:12;;;;;;;12.63;4.32;;;;;;;-0.77;85.33;102733.41;5047261;28;20033;-75
2023/04/04 04:32:38;;;;;;;15.80;4.35;;;;;;;-0.79;86.01;102730.75;5045245;28;20047;-76
2023/04/04 04:35:04;;;;;;;11.48;4.55;;;;;;;-0.81;85.56;102735.13;5050105;28;20589;-76
2023/04/04 04:37:29;;;;;;;19.60;5.43;;;;;;;-0.83;85.91;102733.38;5048642;28;20032;-75
2023/04/04 04:39:55;;;;;;;20.65;5.40;;;;;;;-0.86;85.73;102730.69;5047320;28;20171;-76
2023/04/04 04:42:20;;;;;;;13.85;4.72;;;;;;;-0.89;85.65;102734.22;5043909;28;20028;-76
2023/04/04 04:44:45;;;;;;;15.43;5.18;;;;;;;-0.89;86.59;102737.72;5048313;28;20389;-76
2023/04/04 04:47:11;;;;;;;14.50;5.13;;;;;;;-0.90;85.65;102735.09;5063562;28;20025;-76
2023/04/04 04:49:36;;;;;;;16.50;5.53;;;;;;;-0.92;85.65;102734.22;5048158;28;20055;-76
2023/04/04 04:52:02;;;;;;;12.57;4.65;;;;;;;-0.95;85.58;102747.38;5046250;28;20040;-76
2023/04/04 04:54:27;;;;;;;15.13;5.45;;;;;;;-0.96;85.87;102749.13;5046606;28;20013;-76
2023/04/04 04:56:53;;;;;;;16.52;4.72;;;;;;;-0.95;86.35;102752.63;5053083;28;20048;-76
2023/04/04 04:59:19;;;;;;;16.05;5.07;;;;;;;-0.95;85.64;102760.56;5057673;28;20020;-76
2023/04/04 05:01:44;;;;;;;16.95;5.03;;;;;;;-0.92;85.93;102768.53;5058739;28;20032;-76
2023/04/04 05:04:10;;;;;;;17.38;5.85;;;;;;;-0.93;86.02;102766.75;5065068;28;20017;-76
2023/04/04 05:06:37;;;;;;;12.82;5.05;;;;;;;-0.93;85.97;102774.66;5051952;28;20064;-76
2023/04/04 05:09:02;;;;;;;14.45;4.95;;;;;;;-0.94;85.91;102772.88;5055269;28;20027;-76
2023/04/04 05:11:28;;;;;;;14.02;4.57;;;;;;;-0.96;84.57;102779.94;5057512;28;20119;-76
2023/04/04 05:13:53;;;;;;;17.77;5.15;;;;;;;-0.97;84.58;102775.50;5059446;28;20087;-76
2023/04/04 05:16:19;;;;;;;17.30;5.45;;;;;;;-1.00;86.19;102767.59;5045523;28;20040;-76
2023/04/04 05:18:44;;;;;;;17.92;5.60;;;;;;;-1.03;86.81;102768.44;5044156;28;20026;-76
2023/04/04 05:21:10;;;;;;;16.02;5.28;;;;;;;-1.07;86.89;102767.56;5058194;28;20495;-76
2023/04/04 05:23:35;;;;;;;17.95;5.65;;;;;;;-1.09;85.88;102769.28;5063190;28;20083;-76
2023/04/04 05:26:01;;;;;;;17.10;5.38;;;;;;;-1.11;85.75;102765.75;5058028;28;20028;-76
2023/04/04 05:28:27;;;;;;;14.75;5.35;;;;;;;-1.12;85.78;102771.91;5061358;28;20021;-76
2023/04/04 05:30:52;;;;;;;15.80;5.50;;;;;;;-1.13;86.74;102771.91;5067820;28;20028;-76
2023/04/04 05:33:17;;;;;;;21.23;5.40;;;;;;;-1.13;87.52;102770.16;5048146;28;20028;-76
2023/04/04 05:35:43;;;;;;;15.00;5.13;;;;;;;-1.13;87.42;102771.91;5050173;28;20047;-76
2023/04/04 05:38:08;;;;;;;16.23;5.30;;;;;;;-1.15;87.05;102771.88;5068856;28;20063;-76
2023/04/04 05:40:34;;;;;;;19.45;6.50;;;;;;;-1.14;87.28;102767.47;5056456;28;20039;-76
2023/04/04 05:43:00;;;;;;;17.13;4.93;;;;;;;-1.11;87.58;102780.72;5046001;28;20029;-76
2023/04/04 05:45:26;;;;;;;16.60;5.68;;;;;;;-1.10;88.57;102779.81;5066413;28;20028;-76
2023/04/04 05:47:51;;;;;;;17.08;5.65;;;;;;;-1.08;87.59;102786.91;5052895;28;20108;-76
2023/04/04 05:50:17;;;;;;;15.98;5.25;;;;;;;-1.04;87.56;102792.19;5060560;28;20055;-76
2023/04/04 05:52:42;;;;;;;17.50;5.93;;;;;;;-1.00;88.89;102788.69;5055583;28;20036;-76
2023/04/04 05:55:08;;;;;;;17.98;6.53;;;;;;;-0.93;88.74;102790.50;5046294;28;20025;-76
2023/04/04 05:57:34;;;;;;;15.60;5.13;;;;;;;-0.88;87.33;102788.75;5063846;28;20047;-76
2023/04/04 05:59:59;;;;;;;14.73;4.70;;;;;;;-0.83;87.80;102792.31;5060926;28;20074;-76
2023/04/04 06:02:25;;;;;;;15.88;5.63;;;;;;;-0.77;87.15;102787.06;5059680;28;20499;-79
2023/04/04 06:04:50;;;;;;;14.10;5.00;;;;;;;-0.72;86.62;102779.16;5056795;28;20069;-78
2023/04/04 06:07:15;;;;;;;18.88;5.30;;;;;;;-0.64;86.62;102785.38;5053280;28;20028;-78
2023/04/04 06:09:42;;;;;;;16.45;5.95;;;;;;;-0.59;86.59;102780.97;5051297;28;20040;-79
2023/04/04 06:12:10;;;;;;;18.15;5.53;;;;;;;-0.52;86.54;102776.63;5062672;28;20025;-78
2023/04/04 06:14:36;;;;;;;16.00;5.88;;;;;;;-0.45;86.82;102788.97;5053018;28;21404;-77
2023/04/04 06:17:02;;;;;;;14.45;4.97;;;;;;;-0.39;86.81;102783.72;5060682;28;20036;-77
2023/04/04 06:19:28;;;;;;;18.10;5.55;;;;;;;-0.29;86.45;102781.09;5062009;28;20040;-76
2023/04/04 06:21:53;;;;;;;16.67;6.40;;;;;;;-0.23;86.46;102789.94;5061176;28;20355;-76
2023/04/04 06:24:18;;;;;;;17.27;5.72;;;;;;;-0.14;86.85;102786.44;5057092;28;20025;-77
2023/04/04 06:26:44;;;;;;;20.08;6.28;;;;;;;-0.01;85.62;102800.56;5050781;28;20116;-77
2023/04/04 06:29:09;;;;;;;18.77;6.70;;;;;;;0.11;85.30;102795.28;5053758;28;20044;-76
2023/04/04 06:31:34;;;;;;;16.63;6.10;;;;;;;0.22;83.76;102800.63;5062390;28;20060;-77
2023/04/04 06:34:00;;;;;;;18.33;6.40;;;;;;;0.32;83.31;102798.84;5045193;28;20036;-77
2023/04/04 06:36:25;;;;;;;22.63;6.80;;;;;;;0.44;80.94;102811.19;5059352;28;20025;-76
2023/04/04 06:38:51;;;;;;;16.60;5.93;;;;;;;0.54;82.00;102805.03;5047272;28;20090;-76
2023/04/04 06:41:16;;;;;;;18.25;6.90;;;;;;;0.63;80.86;102801.50;5051196;28;20385;-76
2023/04/04 06:43:41;;;;;;;18.48;6.57;;;;;;;0.73;80.11;102799.75;5051325;28;20043;-77
2023/04/04 06:46:06;;;;;;;19.52;7.00;;;;;;;0.81;79.50;102801.50;5057522;28;20413;-76
2023/04/04 06:48:32;;;;;;;16.92;5.75;;;;;;;0.88;79.63;102807.69;5054641;28;20094;-77
2023/04/04 06:50:57;;;;;;;21.33;7.47;;;;;;;0.96;78.77;102811.19;5060509;28;20070;-78
2023/04/04 06:53:23;;;;;;;19.83;7.35;;;;;;;1.06;78.43;102811.19;5049044;28;20028;-78
2023/04/04 06:55:50;;;;;;;20.75;7.35;;;;;;;1.14;78.48;102812.03;5063293;28;20045;-78
2023/04/04 06:58:15;;;;;;;18.92;6.72;;;;;;;1.20;77.52;102817.31;5063531;28;20103;-78
2023/04/04 07:00:41;;;;;;;18.52;6.95;;;;;;;1.28;77.44;102812.00;5061603;28;20113;-78
2023/04/04 07:03:06;;;;;;;19.63;7.25;;;;;;;1.34;78.19;102815.50;5062041;28;20036;-78
2023/04/04 07:05:31;;;;;;;21.35;7.00;;;;;;;1.42;77.45;102810.19;5056188;28;20028;-78
2023/04/04 07:07:57;;;;;;;18.50;6.72;;;;;;;1.49;76.75;102808.41;5053668;28;20017;-77
2023/04/04 07:10:24;;;;;;;17.17;6.25;;;;;;;1.55;75.65;102811.00;5060032;28;20056;-77
2023/04/04 07:12:50;;;;;;;19.45;7.32;;;;;;;1.63;76.30;102818.97;5055308;28;20025;-77
2023/04/04 07:15:16;;;;;;;16.80;6.85;;;;;;;1.66;74.87;102806.56;5060486;28;20029;-77
2023/04/04 07:17:41;;;;;;;19.10;6.95;;;;;;;1.73;76.23;102810.94;5061207;28;20029;-79
2023/04/04 07:20:08;;;;;;;21.75;7.50;;;;;;;1.79;75.84;102806.47;5054802;28;20043;-78
2023/04/04 07:22:38;;;;;;;18.30;7.10;;;;;;;1.84;75.12;102804.72;5053426;28;20429;-78
2023/04/04 07:25:04;;;;;;;17.55;7.15;;;;;;;1.90;75.81;102810.88;5061389;28;20322;-78
2023/04/04 07:27:30;;;;;;;20.30;7.18;;;;;;;1.98;75.27;102802.88;5053698;28;20036;-76
2023/04/04 07:29:55;;;;;;;19.63;7.45;;;;;;;2.07;75.82;102800.16;5052415;28;20047;-76
2023/04/04 07:32:22;;;;;;;20.40;6.72;;;;;;;2.17;75.88;102808.94;5051295;28;20132;-76
2023/04/04 07:34:48;;;;;;;18.45;6.45;;;;;;;2.27;76.87;102799.16;5065553;28;20037;-76
2023/04/04 07:37:13;;;;;;;22.40;6.85;;;;;;;2.35;74.04;102797.31;5037684;28;20037;-76
2023/04/04 07:39:39;;;;;;;17.83;7.05;;;;;;;2.44;75.04;102789.25;5033524;28;20382;-76
2023/04/04 07:42:05;;;;;;;18.42;6.40;;;;;;;2.52;73.43;102790.97;5039824;28;20056;-75
2023/04/04 07:44:30;;;;;;;18.20;6.47;;;;;;;2.59;72.90;102790.03;5045408;28;20040;-76
2023/04/04 07:46:55;;;;;;;18.65;7.03;;;;;;;2.68;74.42;102792.63;5042115;28;20033;-76
2023/04/04 07:49:21;;;;;;;17.70;6.35;;;;;;;2.77;73.30;102804.94;5062635;28;20032;-77
2023/04/04 07:51:47;;;;;;;18.83;6.68;;;;;;;2.86;73.54;102791.56;5055960;28;20039;-76
2023/04/04 07:54:13;;;;;;;19.20;6.60;;;;;;;2.94;73.06;102791.47;5057245;28;20341;-76
2023/04/04 07:56:38;;;;;;;18.60;6.60;;;;;;;3.03;72.99;102785.19;5050557;28;20044;-77
2023/04/04 07:59:04;;;;;;;18.38;6.97;;;;;;;3.12;73.93;102790.44;5048093;28;20039;-77
2023/04/04 08:01:29;;;;;;;17.05;5.78;;;;;;;3.19;71.14;102796.53;5043719;28;20100;-77
2023/04/04 08:03:55;;;;;;;18.23;6.07;;;;;;;3.24;71.40;102800.03;5059282;28;20107;-76
2023/04/04 08:06:21;;;;;;;13.88;5.53;;;;;;;3.34;72.63;102799.03;5042647;28;20037;-77
2023/04/04 08:08:49;;;;;;;20.02;6.38;;;;;;;3.39;69.77;102801.63;5050776;28;20064;-77
2023/04/04 08:11:15;;;;;;;17.25;5.93;;;;;;;3.47;70.92;102792.66;5047713;28;20468;-76
2023/04/04 08:13:40;;;;;;;18.63;5.93;;;;;;;3.55;70.10;102795.22;5047500;28;20186;-76
2023/04/04 08:16:06;;;;;;;20.13;5.90;;;;;;;3.58;68.49;102794.31;5047856;28;20108;-77
2023/04/04 08:18:32;;;;;;;17.95;5.75;;;;;;;3.66;68.55;102803.06;5045627;28;20083;-76
2023/04/04 08:20:57;;;;;;;14.65;4.43;;;;;;;3.73;65.55;102801.22;5046795;28;20461;-76
2023/04/04 08:23:23;;;;;;;14.75;4.47;;;;;;;3.76;61.59;102799.38;5041566;28;20024;-76
2023/04/04 08:25:48;;;;;;;14.10;4.32;;;;;;;3.80;61.73;102805.56;5052276;28;20029;-76
2023/04/04 08:28:14;;;;;;;13.80;4.28;;;;;;;3.81;63.00;102808.19;5057714;28;20045;-77
2023/04/04 08:30:39;;;;;;;12.90;4.07;;;;;;;3.88;63.92;102797.47;5053061;28;20102;-76
2023/04/04 08:33:05;;;;;;;14.65;4.82;;;;;;;3.94;63.81;102797.38;5058637;28;20619;-76
2023/04/04 08:35:30;;;;;;;19.33;4.93;;;;;;;4.04;66.97;102793.66;5053917;28;20031;-76
2023/04/04 08:37:56;;;;;;;11.55;4.60;;;;;;;4.10;63.47;102790.03;5058011;28;20036;-76
2023/04/04 08:40:22;;;;;;;8.95;3.35;;;;;;;4.17;62.87;102789.94;5051752;28;20064;-77
2023/04/04 08:42:50;;;;;;;14.10;3.88;;;;;;;4.22;57.82;102794.28;5044285;28;20029;-77
2023/04/04 08:45:21;;;;;;;11.18;3.65;;;;;;;4.29;60.77;102787.97;5054487;28;20085;-77
2023/04/04 08:47:49;;;;;;;10.65;3.67;;;;;;;4.36;59.77;102784.31;5056551;28;20032;-76
2023/04/04 08:50:15;;;;;;;6.25;2.70;;;;;;;4.40;56.12;102788.69;5058360;28;20032;-77
2023/04/04 08:52:42;;;;;;;16.80;4.55;;;;;;;4.42;54.65;102786.88;5047975;28;20508;-76
2023/04/04 08:55:08;;;;;;;9.23;3.10;;;;;;;4.46;56.80;102788.59;5060448;28;20033;-77
2023/04/04 08:57:34;;;;;;;10.85;3.25;;;;;;;4.48;54.90;102783.22;5053319;28;20048;-76
2023/04/04 08:59:59;;;;;;;15.20;3.50;;;;;;;4.51;54.99;102789.41;5041336;28;20396;-76
2023/04/04 09:02:33;;;;;;;10.73;3.35;;;;;;;4.57;56.11;102782.19;5055874;28;20028;-76
2023/04/04 09:05:00;;;;;;;11.38;3.83;;;;;;;4.59;54.55;102781.28;5054649;28;20029;-76
2023/04/04 09:07:27;;;;;;;11.35;3.53;;;;;;;4.60;54.29;102790.13;5050129;28;20252;-76
2023/04/04 09:09:52;;;;;;;10.23;3.38;;;;;;;4.64;54.88;102784.75;5047840;28;20426;-76
2023/04/04 09:12:19;;;;;;;10.63;3.13;;;;;;;4.67;54.72;102789.13;5042774;28;20032;-77
2023/04/04 09:14:46;;;;;;;9.85;2.90;;;;;;;4.72;57.21;102777.50;5056799;28;20029;-77
2023/04/04 09:17:12;;;;;;;9.00;3.33;;;;;;;4.76;53.70;102782.75;5057139;28;20497;-76
2023/04/04 09:19:37;;;;;;;7.53;2.90;;;;;;;4.79;52.96;102782.69;5052770;28;20396;-76
2023/04/04 09:22:06;;;;;;;9.63;3.30;;;;;;;4.81;51.91;102775.59;5060214;28;20028;-77
2023/04/04 09:24:42;;;;;;;9.05;2.80;;;;;;;4.84;52.46;102783.53;5061284;28;20028;-76
2023/04/04 09:27:11;;;;;;;14.88;3.60;;;;;;;4.87;53.34;102786.13;5053911;28;20076;-76
2023/04/04 09:29:39;;;;;;;11.20;3.03;;;;;;;4.92;51.73;102791.38;5063527;28;20036;-76
2023/04/04 09:32:08;;;;;;;10.20;2.95;;;;;;;4.93;51.84;102786.00;5059070;28;20488;-76
2023/04/04 09:34:35;;;;;;;9.70;2.88;;;;;;;4.98;51.80;102784.16;5061397;28;20489;-76
2023/04/04 09:37:03;;;;;;;8.18;2.67;;;;;;;5.05;53.09;102787.56;5060002;28;20029;-76
2023/04/04 09:39:28;;;;;;;8.55;2.55;;;;;;;5.11;52.92;102784.81;5063689;28;20054;-76
2023/04/04 09:41:53;;;;;;;12.38;3.15;;;;;;;5.15;52.30;102790.94;5031186;28;20041;-76
2023/04/04 09:44:19;;;;;;;11.65;3.13;;;;;;;5.16;51.30;102776.72;5048701;28;20021;-76
2023/04/04 09:46:45;;;;;;;11.00;2.97;;;;;;;5.17;49.46;102778.44;5057197;28;20151;-76
2023/04/04 09:49:17;;;;;;;7.75;3.17;;;;;;;5.25;53.81;102779.19;5063152;28;20049;-76
2023/04/04 09:51:47;;;;;;;11.90;3.40;;;;;;;5.26;50.92;102775.63;5045265;28;20075;-76
2023/04/04 09:54:20;;;;;;;7.65;2.70;;;;;;;5.30;51.80;102779.09;5054056;28;20108;-76
2023/04/04 09:56:46;;;;;;;12.18;3.22;;;;;;;5.33;50.38;102779.03;5053871;28;20028;-76
2023/04/04 09:59:12;;;;;;;11.38;3.35;;;;;;;5.37;50.96;102765.63;5058737;28;20025;-76
2023/04/04 10:01:38;;;;;;;12.95;3.50;;;;;;;5.42;49.55;102768.19;5051559;28;20029;-76
2023/04/04 10:04:05;;;;;;;9.20;3.30;;;;;;;5.42;48.18;102763.72;5058016;28;20123;-76
2023/04/04 10:06:31;;;;;;;13.25;3.20;;;;;;;5.49;50.37;102761.81;5052055;28;20033;-76
2023/04/04 10:08:57;;;;;;;10.57;3.42;;;;;;;5.50;49.16;102762.69;5047461;28;20515;-76
2023/04/04 10:11:34;;;;;;;9.77;3.20;;;;;;;5.54;49.64;102767.91;5056487;28;20021;-76
2023/04/04 10:14:02;;;;;;;14.60;3.70;;;;;;;5.60;50.99;102757.09;5059430;28;20031;-76
2023/04/04 10:16:31;;;;;;;8.00;2.90;;;;;;;5.62;47.55;102756.22;5050247;28;20152;-76
2023/04/04 10:18:58;;;;;;;11.23;3.42;;;;;;;5.64;48.50;102755.28;5046585;28;20140;-76
2023/04/04 10:21:26;;;;;;;10.45;3.35;;;;;;;5.66;48.43;102757.91;5042933;28;20021;-76
2023/04/04 10:23:53;;;;;;;11.25;3.22;;;;;;;5.69;49.48;102753.38;5044347;28;20166;-76
2023/04/04 10:26:18;;;;;;;9.88;2.80;;;;;;;5.76;51.81;102757.66;5045771;28;20027;-76
2023/04/04 10:28:44;;;;;;;11.15;3.47;;;;;;;5.83;51.97;102746.84;5044053;28;20449;-78
2023/04/04 10:31:23;;;;;;;15.13;3.70;;;;;;;5.93;53.11;102753.75;5047666;28;20160;-78
2023/04/04 10:34:11;;;;;;;10.48;3.40;;;;;;;5.99;49.65;102752.72;5043401;28;20090;-79
2023/04/04 10:36:52;;;;;;;13.32;3.85;;;;;;;6.04;49.81;102756.19;5044977;28;20503;-76
2023/04/04 10:39:25;;;;;;;11.70;3.22;;;;;;;6.10;52.39;102745.34;5045027;28;20484;-77
2023/04/04 10:41:52;;;;;;;16.02;4.13;;;;;;;6.18;50.21;102754.06;5044455;28;20029;-77
2023/04/04 10:44:32;;;;;;;11.38;3.33;;;;;;;6.21;49.64;102742.41;5042208;28;20077;-77
2023/04/04 10:47:06;;;;;;;11.32;3.42;;;;;;;6.21;49.23;102732.63;5042771;28;20139;-77
2023/04/04 10:49:33;;;;;;;12.48;3.55;;;;;;;6.24;49.91;102729.00;5044792;28;20032;-77
2023/04/04 10:51:58;;;;;;;12.80;3.45;;;;;;;6.24;48.33;102721.00;5044549;28;20039;-77
2023/04/04 10:54:28;;;;;;;12.88;3.50;;;;;;;6.29;49.98;102729.75;5044068;28;20488;-77
2023/04/04 10:56:59;;;;;;;11.57;3.75;;;;;;;6.33;52.48;102720.75;5044458;28;20245;-77
2023/04/04 10:59:25;;;;;;;11.35;3.50;;;;;;;6.36;51.95;102720.69;5047464;28;20032;-76
2023/04/04 11:02:01;;;;;;;12.63;3.88;;;;;;;6.43;52.35;102726.75;5042560;28;20499;-77
2023/04/04 11:04:41;;;;;;;20.17;3.75;;;;;;;6.46;48.33;102722.19;5044228;28;20033;-77
2023/04/04 11:07:14;;;;;;;11.27;3.13;;;;;;;6.50;48.90;102723.00;5043423;28;20382;-78
2023/04/04 11:09:46;;;;;;;11.32;3.30;;;;;;;6.54;47.75;102722.00;5047759;28;20476;-78
2023/04/04 11:12:18;;;;;;;10.60;3.72;;;;;;;6.57;47.20;102724.56;5043470;28;20125;-78
2023/04/04 11:15:05;;;;;;;13.13;4.05;;;;;;;6.62;47.99;102716.47;5043275;28;20110;-76
2023/04/04 11:17:50;;;;;;;12.93;4.10;;;;;;;6.57;47.14;102711.22;5043316;28;20084;-76
2023/04/04 11:20:21;;;;;;;13.25;3.70;;;;;;;6.60;47.11;102708.50;5045096;28;20106;-76